Time;durP1;ratioP1;P1;durP2;ratioP2;P2;SDS_P1;SDS_P2;PMS_P1;PMS_P2;Temp;Humidity;BMP_temperature;BMP_pressure;BME280_temperature;BME280_humidity;BME280_pressure;Samples;Min_cycle;Max_cycle;Signal;HPM_P1;HPM_P2
2022/04/15 00:02:06;;;;;;;13.93;8.23;;;;;;;5.15;64.91;100938.06;1690557;82;21078;-76
2022/04/15 00:04:32;;;;;;;15.53;8.50;;;;;;;5.14;65.08;100941.74;1685341;83;21034;-76
2022/04/15 00:07:00;;;;;;;15.13;9.10;;;;;;;5.14;65.28;100943.59;1691427;83;21341;-77
2022/04/15 00:09:27;;;;;;;13.48;8.80;;;;;;;5.14;65.43;100936.97;1649927;84;21507;-77
2022/04/15 00:11:56;;;;;;;13.90;8.83;;;;;;;5.13;65.49;100938.80;1672702;84;21574;-76
2022/04/15 00:14:23;;;;;;;12.45;8.50;;;;;;;5.14;65.54;100938.29;1684569;84;21027;-75
2022/04/15 00:16:51;;;;;;;13.32;8.88;;;;;;;5.13;65.56;100934.83;1671710;84;21190;-76
2022/04/15 00:19:19;;;;;;;13.45;8.65;;;;;;;5.10;65.55;100929.95;1720011;83;21139;-75
2022/04/15 00:21:47;;;;;;;16.32;9.45;;;;;;;5.09;65.58;100938.09;1698149;83;21012;-76
2022/04/15 00:24:14;;;;;;;11.43;8.00;;;;;;;5.07;65.63;100934.86;1672759;84;21590;-76
2022/04/15 00:26:41;;;;;;;14.58;8.70;;;;;;;5.05;65.72;100942.20;1701606;84;21013;-78
2022/04/15 00:29:11;;;;;;;15.28;8.93;;;;;;;5.03;65.76;100934.45;1701413;84;21019;-78
2022/04/15 00:31:40;;;;;;;15.08;9.00;;;;;;;5.00;65.83;100933.58;1697074;84;21149;-77
2022/04/15 00:34:06;;;;;;;14.78;9.25;;;;;;;4.99;65.89;100929.80;1669467;85;21080;-78
2022/04/15 00:36:35;;;;;;;16.37;9.03;;;;;;;4.98;65.94;100933.48;1710512;83;21023;-77
2022/04/15 00:39:02;;;;;;;17.27;10.13;;;;;;;4.91;65.99;100925.05;1690349;84;21079;-77
2022/04/15 00:41:30;;;;;;;15.63;10.00;;;;;;;4.89;66.10;100931.05;1690393;84;21755;-77
2022/04/15 00:43:58;;;;;;;13.98;9.93;;;;;;;4.86;66.15;100924.85;1697841;83;21232;-77
2022/04/15 00:46:25;;;;;;;14.85;9.30;;;;;;;4.83;66.16;100927.91;1692155;83;21074;-76
2022/04/15 00:48:51;;;;;;;15.75;9.63;;;;;;;4.79;66.24;100929.36;1701985;83;21448;-77
2022/04/15 00:51:20;;;;;;;17.35;10.23;;;;;;;4.78;66.34;100926.94;1695453;84;21008;-77
2022/04/15 00:53:47;;;;;;;16.37;10.28;;;;;;;4.78;66.38;100922.45;1715307;82;21034;-77
2022/04/15 00:56:14;;;;;;;15.25;9.58;;;;;;;4.74;66.41;100914.64;1732681;82;21619;-76
2022/04/15 00:58:41;;;;;;;16.37;10.20;;;;;;;4.69;66.44;100917.09;1712285;82;21000;-77
2022/04/15 01:01:07;;;;;;;16.02;9.80;;;;;;;4.67;66.56;100910.70;1709636;82;21058;-77
2022/04/15 01:03:34;;;;;;;17.87;10.90;;;;;;;4.65;66.62;100920.66;1668574;84;21095;-78
2022/04/15 01:06:01;;;;;;;16.27;10.45;;;;;;;4.64;66.66;100917.73;1697424;83;20955;-77
2022/04/15 01:08:29;;;;;;;16.20;10.30;;;;;;;4.62;66.70;100916.30;1701678;82;21768;-77
2022/04/15 01:10:58;;;;;;;14.58;9.95;;;;;;;4.60;66.75;100913.84;1668051;84;21004;-77
2022/04/15 01:13:26;;;;;;;16.85;10.60;;;;;;;4.59;66.85;100911.42;1696726;84;21154;-78
2022/04/15 01:15:55;;;;;;;16.27;9.80;;;;;;;4.58;66.91;100913.27;1695549;84;20992;-78
2022/04/15 01:18:23;;;;;;;17.00;10.72;;;;;;;4.57;66.93;100912.94;1676250;83;21078;-78
2022/04/15 01:20:52;;;;;;;15.08;10.80;;;;;;;4.59;67.00;100915.39;1695924;83;21168;-75
2022/04/15 01:23:21;;;;;;;15.75;10.05;;;;;;;4.60;67.02;100913.05;1699147;84;20995;-77
2022/04/15 01:25:49;;;;;;;18.20;11.38;;;;;;;4.60;67.06;100913.05;1669469;84;21023;-77
2022/04/15 01:28:16;;;;;;;15.70;9.95;;;;;;;4.59;67.03;100912.75;1689684;83;21039;-77
2022/04/15 01:30:44;;;;;;;17.40;10.20;;;;;;;4.58;67.05;100914.59;1664868;84;21509;-77
2022/04/15 01:33:17;;;;;;;14.65;9.50;;;;;;;4.58;67.09;100917.23;1699311;82;21172;-77
2022/04/15 01:35:41;;;;;;;15.03;9.25;;;;;;;4.57;67.15;100918.75;1685629;82;21114;-77
2022/04/15 01:38:10;;;;;;;20.40;12.20;;;;;;;4.56;67.36;100923.23;1684134;83;21545;-77
2022/04/15 01:40:37;;;;;;;17.62;11.30;;;;;;;4.57;67.60;100916.10;1686216;83;21066;-77
2022/04/15 01:43:05;;;;;;;18.95;11.95;;;;;;;4.62;67.85;100917.63;1686146;83;21109;-77
2022/04/15 01:45:31;;;;;;;21.45;13.20;;;;;;;4.63;68.03;100914.76;1680790;83;21558;-77
2022/04/15 01:47:58;;;;;;;18.00;12.13;;;;;;;4.66;68.17;100906.92;1681080;83;21047;-76
2022/04/15 01:50:28;;;;;;;15.35;9.68;;;;;;;4.70;68.21;100916.89;1685221;83;21071;-76
2022/04/15 01:52:55;;;;;;;16.42;10.35;;;;;;;4.72;68.18;100904.77;1689740;83;21086;-76
2022/04/15 01:55:22;;;;;;;15.45;10.08;;;;;;;4.73;68.32;100903.73;1647794;84;21028;-77
2022/04/15 01:57:49;;;;;;;14.83;9.33;;;;;;;4.77;68.54;100908.94;1680292;82;21783;-77
2022/04/15 02:00:17;;;;;;;14.93;9.83;;;;;;;4.77;68.46;100904.96;1685229;83;21573;-77
2022/04/15 02:02:45;;;;;;;16.42;10.00;;;;;;;4.76;68.41;100901.19;1656906;85;21636;-75
2022/04/15 02:05:11;;;;;;;12.43;9.30;;;;;;;4.76;68.40;100909.94;1657247;84;21122;-77
2022/04/15 02:07:39;;;;;;;15.25;9.95;;;;;;;4.75;68.38;100910.16;1692998;83;21114;-77
2022/04/15 02:10:07;;;;;;;14.38;9.53;;;;;;;4.74;68.29;100906.70;1685711;83;21249;-77
2022/04/15 02:12:34;;;;;;;15.23;9.93;;;;;;;4.72;68.23;100906.09;1650060;84;21059;-77
2022/04/15 02:15:01;;;;;;;15.98;9.20;;;;;;;4.72;68.13;100909.25;1680939;84;21608;-77
2022/04/15 02:17:27;;;;;;;13.58;9.20;;;;;;;4.65;67.99;100911.92;1658684;84;21009;-77
2022/04/15 02:19:54;;;;;;;13.95;9.95;;;;;;;4.61;67.96;100900.95;1664960;84;21179;-76
2022/04/15 02:22:21;;;;;;;14.95;9.85;;;;;;;4.57;67.91;100904.20;1657326;85;21167;-77
2022/04/15 02:24:47;;;;;;;15.25;9.93;;;;;;;4.53;67.86;100900.35;1656369;84;21523;-77
2022/04/15 02:27:15;;;;;;;13.00;9.03;;;;;;;4.46;67.85;100902.50;1668153;84;21628;-77
2022/04/15 02:29:44;;;;;;;13.78;9.20;;;;;;;4.43;67.86;100895.50;1645786;84;21108;-77
2022/04/15 02:32:12;;;;;;;14.83;9.03;;;;;;;4.39;67.90;100895.10;1665592;84;21079;-77
2022/04/15 02:34:39;;;;;;;12.58;8.75;;;;;;;4.34;67.94;100901.51;1665837;85;21865;-77
2022/04/15 02:37:07;;;;;;;16.00;8.80;;;;;;;4.30;68.01;100898.98;1709651;83;21546;-77
2022/04/15 02:39:35;;;;;;;12.82;8.30;;;;;;;4.29;68.13;100903.17;1684949;83;21099;-77
2022/04/15 02:42:02;;;;;;;13.35;9.05;;;;;;;4.28;68.27;100899.72;1691775;83;21102;-77
2022/04/15 02:44:29;;;;;;;12.28;8.40;;;;;;;4.27;68.34;100895.43;1684062;83;21083;-75
2022/04/15 02:46:58;;;;;;;13.18;8.68;;;;;;;4.28;68.45;100901.52;1684059;83;21145;-75
2022/04/15 02:49:27;;;;;;;14.65;9.23;;;;;;;4.27;68.45;100891.98;1659220;84;21150;-75
2022/04/15 02:51:54;;;;;;;14.05;9.23;;;;;;;4.25;68.43;100893.52;1664928;84;21010;-75
2022/04/15 02:54:23;;;;;;;14.05;8.63;;;;;;;4.21;68.47;100889.16;1695510;82;21145;-75
2022/04/15 02:56:52;;;;;;;13.20;9.53;;;;;;;4.18;68.46;100892.72;1685017;82;21094;-77
2022/04/15 02:59:20;;;;;;;17.37;12.58;;;;;;;4.13;68.58;100888.55;1686054;82;21608;-75
2022/04/15 03:01:49;;;;;;;15.98;10.32;;;;;;;4.13;68.63;100895.16;1696580;82;21031;-75
2022/04/15 03:04:15;;;;;;;14.73;11.48;;;;;;;4.12;68.76;100889.06;1688119;82;20995;-75
2022/04/15 03:06:44;;;;;;;16.10;11.73;;;;;;;4.11;68.82;100887.42;1691001;82;21095;-77
2022/04/15 03:09:11;;;;;;;17.42;13.25;;;;;;;4.10;68.87;100888.96;1689971;82;21050;-75
2022/04/15 03:11:38;;;;;;;18.77;14.28;;;;;;;4.10;68.90;100883.67;1696705;82;21739;-75
2022/04/15 03:14:05;;;;;;;17.40;13.78;;;;;;;4.11;68.94;100882.64;1695036;83;21160;-75
2022/04/15 03:16:34;;;;;;;16.27;13.60;;;;;;;4.09;68.97;100884.70;1685176;82;21054;-76
2022/04/15 03:19:02;;;;;;;21.42;14.80;;;;;;;4.04;69.01;100883.98;1695507;82;21109;-76
2022/04/15 03:21:30;;;;;;;19.02;13.32;;;;;;;4.02;69.08;100887.87;1691041;82;21514;-75
2022/04/15 03:23:56;;;;;;;17.52;12.75;;;;;;;3.99;69.15;100882.48;1687433;82;21141;-75
2022/04/15 03:26:25;;;;;;;19.52;13.15;;;;;;;3.98;69.21;100883.47;1688085;83;21086;-75
2022/04/15 03:28:52;;;;;;;17.40;12.10;;;;;;;3.94;69.29;100879.11;1690421;82;21067;-76
2022/04/15 03:31:20;;;;;;;18.17;12.07;;;;;;;3.88;69.45;100883.92;1699548;82;21015;-76
2022/04/15 03:33:46;;;;;;;15.48;11.25;;;;;;;3.88;69.63;100879.95;1702276;82;21527;-76
2022/04/15 03:36:13;;;;;;;16.15;11.38;;;;;;;3.87;69.77;100882.27;1700348;82;21279;-76
2022/04/15 03:38:40;;;;;;;16.00;10.58;;;;;;;3.91;69.97;100878.71;1697988;82;21052;-75
2022/04/15 03:41:07;;;;;;;18.15;11.22;;;;;;;3.93;70.13;100884.61;1696043;82;21095;-76
2022/04/15 03:43:33;;;;;;;17.32;12.00;;;;;;;3.94;70.26;100884.39;1692895;82;21130;-75
2022/04/15 03:46:00;;;;;;;15.45;11.33;;;;;;;3.95;70.39;100886.05;1688298;82;21192;-76
2022/04/15 03:48:27;;;;;;;17.05;11.78;;;;;;;4.00;70.55;100891.51;1692375;82;21553;-75
2022/04/15 03:50:55;;;;;;;17.23;12.43;;;;;;;4.07;70.70;100893.34;1691718;82;21154;-75
2022/04/15 03:53:24;;;;;;;16.30;11.80;;;;;;;4.17;70.78;100891.88;1702503;82;21054;-77
2022/04/15 03:55:51;;;;;;;17.12;11.95;;;;;;;4.26;70.85;100887.20;1681834;83;21328;-77
2022/04/15 03:58:19;;;;;;;16.65;11.15;;;;;;;4.34;70.94;100885.64;1684292;82;21578;-77
2022/04/15 04:00:46;;;;;;;17.67;11.97;;;;;;;4.42;71.00;100883.30;1677965;84;21261;-77
2022/04/15 04:03:14;;;;;;;16.50;11.38;;;;;;;4.53;71.11;100886.61;1697867;83;21023;-77
2022/04/15 04:05:41;;;;;;;16.75;11.30;;;;;;;4.64;71.13;100881.17;1682198;82;21398;-75
2022/04/15 04:08:07;;;;;;;17.37;11.50;;;;;;;4.75;71.21;100881.05;1714011;82;21547;-74
2022/04/15 04:10:34;;;;;;;17.70;11.70;;;;;;;4.87;71.26;100880.66;1710456;83;21641;-73
2022/04/15 04:13:02;;;;;;;17.80;11.78;;;;;;;4.98;71.29;100881.34;1716129;82;22021;-73
2022/04/15 04:15:31;;;;;;;15.88;11.33;;;;;;;5.08;71.34;100879.04;1732897;82;21616;-75
2022/04/15 04:17:58;;;;;;;17.23;12.28;;;;;;;5.18;71.36;100881.23;1733090;82;21023;-75
2022/04/15 04:20:26;;;;;;;18.17;12.40;;;;;;;5.26;71.39;100876.98;1709625;82;21029;-75
2022/04/15 04:22:52;;;;;;;15.68;11.35;;;;;;;5.36;71.42;100879.16;1666201;84;21529;-75
2022/04/15 04:25:21;;;;;;;18.25;11.55;;;;;;;5.52;71.45;100877.83;1667204;84;21066;-75
2022/04/15 04:27:49;;;;;;;18.52;13.03;;;;;;;5.67;71.38;100873.55;1663747;84;21606;-75
2022/04/15 04:30:16;;;;;;;18.82;12.40;;;;;;;5.83;71.34;100872.48;1666377;84;21023;-75
2022/04/15 04:32:49;;;;;;;19.48;13.45;;;;;;;6.01;71.21;100867.75;1640317;87;21127;-75
2022/04/15 04:35:12;;;;;;;19.98;14.40;;;;;;;6.17;71.02;100863.72;1673865;85;21019;-74
2022/04/15 04:37:40;;;;;;;22.07;14.58;;;;;;;6.32;70.88;100866.83;1685915;82;21105;-75
2022/04/15 04:40:09;;;;;;;18.95;13.18;;;;;;;6.48;70.72;100867.25;1690040;82;21050;-75
2022/04/15 04:42:36;;;;;;;18.95;12.45;;;;;;;6.61;70.55;100858.33;1689352;82;21547;-75
2022/04/15 04:45:02;;;;;;;19.15;12.85;;;;;;;6.74;70.32;100857.64;1687175;83;21063;-75
2022/04/15 04:47:30;;;;;;;18.75;12.98;;;;;;;6.89;70.03;100859.91;1661518;83;22133;-75
2022/04/15 04:50:01;;;;;;;18.62;12.50;;;;;;;7.03;69.80;100859.20;1688074;82;21506;-74
2022/04/15 04:52:29;;;;;;;17.32;11.88;;;;;;;7.19;69.45;100854.58;1689422;82;21558;-75
2022/04/15 04:54:55;;;;;;;17.30;12.03;;;;;;;7.33;69.08;100858.37;1681820;84;21696;-75
2022/04/15 04:57:22;;;;;;;18.90;12.98;;;;;;;7.47;68.67;100856.62;1683344;83;20992;-75
2022/04/15 04:59:49;;;;;;;19.15;13.30;;;;;;;7.61;68.38;100857.21;1693861;82;21043;-74
2022/04/15 05:02:17;;;;;;;18.35;12.30;;;;;;;7.77;68.05;100852.26;1691612;82;21635;-74
2022/04/15 05:04:45;;;;;;;18.77;12.43;;;;;;;7.92;67.41;100848.59;1682001;84;22474;-74
2022/04/15 05:07:14;;;;;;;19.20;13.13;;;;;;;8.06;66.68;100850.00;1687522;83;21063;-74
2022/04/15 05:09:43;;;;;;;19.75;13.22;;;;;;;8.19;66.18;100847.09;1698950;84;21073;-73
2022/04/15 05:12:10;;;;;;;18.45;12.05;;;;;;;8.33;65.63;100844.17;1713793;82;21042;-74
2022/04/15 05:14:40;;;;;;;17.10;12.15;;;;;;;8.48;65.12;100844.49;1681248;83;21046;-74
2022/04/15 05:17:07;;;;;;;18.00;12.10;;;;;;;8.61;64.54;100835.43;1648446;84;21193;-75
2022/04/15 05:19:33;;;;;;;18.60;12.28;;;;;;;8.74;64.01;100839.67;1660217;84;21066;-75
2022/04/15 05:22:02;;;;;;;17.23;11.57;;;;;;;8.87;63.30;100837.52;1656293;84;21095;-76
2022/04/15 05:24:30;;;;;;;16.62;11.33;;;;;;;9.01;62.59;100835.37;1648166;85;21025;-75
2022/04/15 05:26:58;;;;;;;16.10;11.10;;;;;;;9.15;61.93;100835.38;1684197;82;21829;-75
2022/04/15 05:29:25;;;;;;;16.80;11.33;;;;;;;9.28;61.21;100829.42;1684695;83;21040;-76
2022/04/15 05:31:52;;;;;;;14.63;10.70;;;;;;;9.42;60.34;100838.74;1664611;85;21071;-76
2022/04/15 05:34:19;;;;;;;16.12;10.95;;;;;;;9.55;59.53;100836.28;1664630;84;21093;-76
2022/04/15 05:36:46;;;;;;;17.60;11.18;;;;;;;9.67;58.56;100836.98;1686170;84;21030;-76
2022/04/15 05:39:13;;;;;;;15.53;10.80;;;;;;;9.81;57.86;100838.28;1675485;85;21789;-73
2022/04/15 05:41:42;;;;;;;14.87;9.60;;;;;;;9.93;57.32;100835.49;1691969;83;20999;-76
2022/04/15 05:44:12;;;;;;;15.35;10.45;;;;;;;10.06;56.46;100833.00;1695619;83;21009;-74
2022/04/15 05:46:37;;;;;;;16.27;9.38;;;;;;;10.20;55.93;100828.94;1689497;82;21570;-74
2022/04/15 05:49:06;;;;;;;12.90;8.38;;;;;;;10.33;55.05;100834.44;1688113;83;20968;-74
2022/04/15 05:51:33;;;;;;;13.62;8.85;;;;;;;10.45;54.29;100827.13;1693941;83;21778;-75
2022/04/15 05:54:00;;;;;;;11.95;8.10;;;;;;;10.61;53.64;100825.44;1682374;83;20960;-75
2022/04/15 05:56:28;;;;;;;13.68;8.10;;;;;;;10.76;52.54;100824.81;1675075;82;21027;-75
2022/04/15 05:58:56;;;;;;;13.35;8.28;;;;;;;10.88;51.77;100821.97;1683371;83;21642;-75
2022/04/15 06:01:23;;;;;;;11.55;7.30;;;;;;;11.00;50.98;100816.76;1661180;85;21087;-75
2022/04/15 06:03:49;;;;;;;9.55;6.65;;;;;;;11.15;50.23;100819.28;1691749;83;21082;-75
2022/04/15 06:06:17;;;;;;;11.15;7.10;;;;;;;11.27;49.76;100811.91;1693732;83;21058;-75
2022/04/15 06:08:43;;;;;;;11.08;7.20;;;;;;;11.40;49.50;100815.48;1687833;83;21078;-74
2022/04/15 06:11:10;;;;;;;11.40;7.42;;;;;;;11.57;48.97;100813.20;1660096;84;21134;-74
2022/04/15 06:13:41;;;;;;;9.78;6.60;;;;;;;11.73;48.50;100812.23;1680514;83;21050;-75
2022/04/15 06:16:09;;;;;;;11.57;6.92;;;;;;;11.87;47.38;100808.60;1655946;82;21516;-75
2022/04/15 06:18:36;;;;;;;12.28;7.40;;;;;;;12.00;47.21;100804.66;1664969;84;21506;-74
2022/04/15 06:21:04;;;;;;;10.10;6.65;;;;;;;12.14;47.08;100799.09;1688268;82;21533;-74
2022/04/15 06:23:31;;;;;;;10.05;6.87;;;;;;;12.32;46.78;100804.54;1691160;82;21098;-74
2022/04/15 06:25:59;;;;;;;16.12;7.08;;;;;;;12.47;46.28;100797.07;1689295;83;21102;-75
2022/04/15 06:28:26;;;;;;;11.55;6.95;;;;;;;12.61;45.94;100783.47;1665347;84;21063;-75
2022/04/15 06:30:56;;;;;;;10.20;6.53;;;;;;;12.77;45.72;100784.31;1657305;85;21099;-75
2022/04/15 06:33:22;;;;;;;10.38;6.47;;;;;;;12.93;45.23;100782.42;1683635;83;21067;-75
2022/04/15 06:35:52;;;;;;;10.03;6.90;;;;;;;13.08;44.70;100776.54;1650718;84;21099;-73
2022/04/15 06:38:20;;;;;;;12.57;6.57;;;;;;;13.24;44.32;100778.72;1686364;83;21012;-75
2022/04/15 06:40:46;;;;;;;10.07;6.70;;;;;;;13.39;43.85;100773.87;1687865;83;21678;-74
2022/04/15 06:43:14;;;;;;;9.40;6.33;;;;;;;13.54;43.39;100774.40;1666174;85;21363;-74
2022/04/15 06:45:42;;;;;;;10.27;6.20;;;;;;;13.70;42.64;100775.97;1659877;83;21425;-74
2022/04/15 06:48:10;;;;;;;10.13;5.53;;;;;;;13.85;41.81;100772.43;1664155;84;21448;-75
2022/04/15 06:50:37;;;;;;;9.00;5.97;;;;;;;13.99;41.45;100770.79;1662067;83;21365;-76
2022/04/15 06:53:05;;;;;;;8.33;5.43;;;;;;;14.12;41.10;100772.09;1663600;84;21316;-74
2022/04/15 06:55:32;;;;;;;8.90;5.80;;;;;;;14.28;40.46;100769.59;1657722;84;21205;-75
2022/04/15 06:57:59;;;;;;;8.93;5.00;;;;;;;14.43;40.07;100764.67;1667159;84;21805;-75
2022/04/15 07:00:26;;;;;;;7.77;4.70;;;;;;;14.57;39.52;100756.81;1688963;82;21378;-76
2022/04/15 07:02:53;;;;;;;7.87;4.70;;;;;;;14.73;38.49;100758.33;1692611;83;21122;-74
2022/04/15 07:05:21;;;;;;;10.17;4.47;;;;;;;14.86;37.82;100754.75;1703377;82;21137;-75
2022/04/15 07:07:48;;;;;;;7.10;4.30;;;;;;;15.02;38.13;100756.23;1696605;82;21342;-75
2022/04/15 07:10:18;;;;;;;7.83;4.10;;;;;;;15.17;37.08;100749.39;1688420;83;21377;-75
2022/04/15 07:12:45;;;;;;;7.30;3.83;;;;;;;15.34;37.27;100754.89;1684968;82;21773;-76
2022/04/15 07:15:12;;;;;;;6.43;3.30;;;;;;;15.52;37.18;100750.13;1658494;84;21156;-74
2022/04/15 07:17:38;;;;;;;6.30;3.67;;;;;;;15.87;35.21;100746.27;1691449;82;21389;-74
2022/04/15 07:20:08;;;;;;;5.27;3.43;;;;;;;16.02;35.20;100743.13;1682526;82;21524;-75
2022/04/15 07:22:36;;;;;;;4.93;2.90;;;;;;;16.02;35.20;100743.13;1660690;84;21538;-75
2022/04/15 07:25:04;;;;;;;5.50;3.07;;;;;;;16.34;34.61;100742.44;1663277;84;21451;-74
2022/04/15 07:27:31;;;;;;;4.93;2.90;;;;;;;16.50;34.80;100736.30;1663139;84;21848;-76
2022/04/15 07:30:00;;;;;;;5.23;2.90;;;;;;;16.50;34.80;100736.30;1660690;84;21520;-74
2022/04/15 07:32:28;;;;;;;6.10;3.07;;;;;;;16.65;33.08;100736.08;1663589;84;21594;-74
2022/04/15 07:34:56;;;;;;;5.17;2.73;;;;;;;16.86;33.31;100736.03;1665977;84;22099;-75
2022/04/15 07:37:24;;;;;;;4.40;2.50;;;;;;;16.86;33.31;100736.03;1687780;83;21543;-74
2022/04/15 07:39:51;;;;;;;4.60;2.50;;;;;;;17.01;32.71;100736.34;1684334;83;21589;-74
2022/04/15 07:42:18;;;;;;;5.27;2.83;;;;;;;17.15;32.23;100732.88;1686744;83;21698;-76
2022/04/15 07:44:45;;;;;;;5.07;2.50;;;;;;;17.28;32.39;100728.05;1686891;83;21695;-77
2022/04/15 07:47:12;;;;;;;4.77;2.50;;;;;;;17.43;32.39;100728.30;1680431;83;21784;-76
2022/04/15 07:49:40;;;;;;;4.57;2.30;;;;;;;17.55;31.58;100726.72;1688674;83;21707;-75
2022/04/15 07:52:10;;;;;;;4.03;2.23;;;;;;;17.69;31.22;100731.33;1688076;83;21723;-75
2022/04/15 07:54:40;;;;;;;4.53;2.10;;;;;;;17.81;31.24;100720.86;1691192;82;21690;-73
2022/04/15 07:58:02;;;;;;;3.73;1.83;;;;;;;17.93;30.25;100718.98;1690907;82;21018;-75
2022/04/15 08:01:44;;;;;;;4.10;1.80;;;;;;;18.00;29.34;100720.19;1683110;82;21729;-75
2022/04/15 08:04:34;;;;;;;4.90;2.10;;;;;;;18.14;30.17;100713.95;1692188;82;21789;-76
2022/04/15 08:06:58;;;;;;;4.00;2.10;;;;;;;18.30;29.58;100707.67;1664259;84;21712;-75
2022/04/15 08:09:27;;;;;;;5.30;2.23;;;;;;;18.40;29.34;100702.81;1659267;85;21098;-75
2022/04/15 08:11:54;;;;;;;3.60;1.80;;;;;;;18.49;29.12;100699.64;1690252;83;21524;-75
2022/04/15 08:14:23;;;;;;;4.60;2.17;;;;;;;18.61;28.80;100699.07;1683430;83;21086;-76
2022/04/15 08:16:51;;;;;;;5.07;2.50;;;;;;;18.66;27.50;100696.81;1681942;83;21605;-75
2022/04/15 08:19:20;;;;;;;6.40;2.73;;;;;;;18.67;28.68;100688.94;1663181;84;21086;-76
2022/04/15 08:21:46;;;;;;;5.13;2.30;;;;;;;18.75;29.46;100690.92;1690502;82;21244;-75
2022/04/15 08:24:14;;;;;;;4.00;2.17;;;;;;;18.87;28.91;100687.10;1685035;83;21107;-76
2022/04/15 08:26:44;;;;;;;4.00;2.17;;;;;;;18.97;29.25;100689.55;1680522;83;21111;-76
2022/04/15 08:29:12;;;;;;;4.30;2.27;;;;;;;19.09;29.12;100686.84;1679646;83;21142;-74
2022/04/15 08:31:39;;;;;;;5.37;2.47;;;;;;;19.22;29.23;100681.88;1673268;85;21439;-76
2022/04/15 08:34:06;;;;;;;6.67;2.60;;;;;;;19.34;28.85;100682.07;1683524;83;21253;-75
2022/04/15 08:36:33;;;;;;;4.80;2.70;;;;;;;19.42;28.37;100679.97;1695328;83;21155;-75
2022/04/15 08:39:01;;;;;;;4.43;2.33;;;;;;;19.47;28.29;100678.22;1691216;83;21055;-76
2022/04/15 08:41:29;;;;;;;3.80;2.10;;;;;;;19.49;26.94;100671.95;1691994;83;21541;-76
2022/04/15 08:43:57;;;;;;;4.03;2.33;;;;;;;19.45;27.68;100672.58;1690953;83;39141;-77
2022/04/15 08:46:24;;;;;;;4.80;2.20;;;;;;;19.54;28.38;100671.78;1680814;83;21104;-75
2022/04/15 08:48:52;;;;;;;4.53;2.30;;;;;;;19.67;27.66;100670.34;1683497;83;21438;-77
2022/04/15 08:51:18;;;;;;;5.73;2.17;;;;;;;19.80;27.55;100661.84;1683934;83;21085;-76
2022/04/15 08:53:47;;;;;;;3.50;1.90;;;;;;;19.91;27.22;100662.35;1687708;83;21077;-75
2022/04/15 08:56:15;;;;;;;6.67;2.33;;;;;;;20.00;27.10;100659.07;1681226;83;21569;-74
2022/04/15 08:58:43;;;;;;;4.43;2.40;;;;;;;20.07;27.49;100655.36;1642989;84;21281;-74
2022/04/15 09:01:10;;;;;;;3.30;1.97;;;;;;;20.17;26.84;100650.70;1686463;83;21361;-75
2022/04/15 09:03:37;;;;;;;4.17;1.80;;;;;;;20.23;25.20;100650.23;1680201;83;21131;-77
2022/04/15 09:06:06;;;;;;;3.80;1.63;;;;;;;20.22;25.96;100645.93;1689009;83;21075;-78
2022/04/15 09:08:34;;;;;;;2.93;1.73;;;;;;;20.27;25.65;100645.78;1666136;83;21060;-76
2022/04/15 09:11:01;;;;;;;3.70;1.93;;;;;;;20.37;25.91;100646.02;1684165;83;21242;-74
2022/04/15 09:13:31;;;;;;;4.10;2.23;;;;;;;20.47;26.16;100633.48;1646812;82;21028;-75
2022/04/15 09:16:00;;;;;;;3.70;1.87;;;;;;;20.47;24.63;100625.34;1684896;82;21414;-75
2022/04/15 09:18:36;;;;;;;4.30;2.03;;;;;;;20.50;25.20;100625.23;1686489;83;20976;-75
2022/04/15 09:21:28;;;;;;;3.57;1.97;;;;;;;20.59;25.42;100624.69;1684698;84;20995;-75
2022/04/15 09:23:56;;;;;;;3.58;1.90;;;;;;;20.69;25.09;100621.62;1674989;83;21013;-76
2022/04/15 09:26:25;;;;;;;4.03;2.00;;;;;;;20.78;25.15;100616.98;1678337;83;21082;-75
2022/04/15 09:28:53;;;;;;;3.13;1.80;;;;;;;20.87;25.04;100611.53;1660682;84;21079;-75
2022/04/15 09:31:22;;;;;;;4.13;2.00;;;;;;;20.95;24.94;100604.47;1688664;82;21047;-77
2022/04/15 09:33:58;;;;;;;3.87;2.00;;;;;;;21.02;24.67;100602.83;1679663;83;21114;-73
2022/04/15 09:36:39;;;;;;;4.40;1.93;;;;;;;21.04;24.50;100609.31;1673030;85;21578;-74
2022/04/15 09:39:14;;;;;;;4.80;2.23;;;;;;;21.06;24.58;100601.08;1672822;85;21573;-77
2022/04/15 09:41:51;;;;;;;4.00;1.80;;;;;;;21.12;24.13;100603.03;1672083;85;21114;-77
2022/04/15 09:44:17;;;;;;;4.00;2.00;;;;;;;21.18;24.28;100593.58;1673399;85;21070;-74
2022/04/15 09:46:45;;;;;;;2.83;1.57;;;;;;;21.24;24.56;100589.55;1661502;84;20976;-73
2022/04/15 09:49:13;;;;;;;4.93;1.70;;;;;;;21.35;24.15;100585.13;1722349;83;21096;-75
2022/04/15 09:51:52;;;;;;;3.53;1.70;;;;;;;21.35;24.16;100579.70;1726024;83;21037;-76
2022/04/15 09:54:25;;;;;;;4.50;2.00;;;;;;;21.35;23.37;100581.06;1725893;83;21591;-75
2022/04/15 09:56:57;;;;;;;3.30;1.90;;;;;;;21.27;23.78;100573.96;1686435;83;21613;-73
2022/04/15 09:59:26;;;;;;;3.40;1.77;;;;;;;21.26;23.78;100577.02;1668297;86;21585;-75
2022/04/15 10:01:56;;;;;;;5.13;1.93;;;;;;;21.24;23.77;100571.90;1668055;86;21310;-75
2022/04/15 10:04:24;;;;;;;4.80;1.80;;;;;;;21.29;24.12;100562.78;1669611;83;21102;-77
2022/04/15 10:06:51;;;;;;;3.83;1.73;;;;;;;21.38;23.81;100558.66;1668101;86;21077;-76
2022/04/15 10:09:20;;;;;;;3.80;1.90;;;;;;;21.40;23.01;100552.34;1668315;86;21031;-75
2022/04/15 10:11:48;;;;;;;3.70;1.70;;;;;;;21.36;22.77;100554.94;1674276;84;21558;-73
2022/04/15 10:14:17;;;;;;;3.70;1.90;;;;;;;21.30;23.02;100552.93;1696102;84;21960;-74
2022/04/15 10:16:44;;;;;;;5.90;2.00;;;;;;;21.29;23.24;100547.27;1696118;84;21007;-75
2022/04/15 10:19:12;;;;;;;3.70;2.00;;;;;;;21.34;23.18;100542.77;1696348;84;20972;-74
2022/04/15 10:21:43;;;;;;;4.50;2.00;;;;;;;21.38;23.24;100535.57;1697199;83;21031;-74
2022/04/15 10:24:12;;;;;;;3.70;2.00;;;;;;;21.41;23.06;100528.91;1696056;84;20930;-73
2022/04/15 10:26:45;;;;;;;4.27;2.00;;;;;;;21.48;22.52;100531.09;1690027;83;21153;-75
2022/04/15 10:29:12;;;;;;;3.93;2.10;;;;;;;21.43;22.42;100517.16;1686165;83;21098;-74
2022/04/15 10:31:48;;;;;;;4.10;1.90;;;;;;;21.42;23.51;100520.19;1655859;85;21888;-75
2022/04/15 10:34:19;;;;;;;4.67;2.10;;;;;;;21.49;23.53;100512.33;1671306;85;20978;-76
2022/04/15 10:36:54;;;;;;;3.73;1.67;;;;;;;21.60;23.52;100510.80;1671205;85;21021;-75
2022/04/15 10:39:26;;;;;;;4.77;1.90;;;;;;;21.72;23.32;100509.50;1682830;83;21254;-74
2022/04/15 10:42:05;;;;;;;4.60;1.70;;;;;;;21.80;22.63;100506.46;1679244;83;21141;-76
2022/04/15 10:44:39;;;;;;;4.40;2.20;;;;;;;21.77;22.43;100516.64;1685847;83;21074;-75
2022/04/15 10:47:22;;;;;;;5.00;2.30;;;;;;;21.76;22.60;100503.62;1677860;83;21534;-77
2022/04/15 10:50:03;;;;;;;2.90;1.70;;;;;;;21.83;23.42;100519.96;1652727;86;21083;-75
2022/04/15 10:52:36;;;;;;;2.90;1.60;;;;;;;21.96;23.29;100513.44;1674494;84;21794;-76
2022/04/15 10:55:08;;;;;;;3.70;1.85;;;;;;;22.08;23.51;100485.47;1692502;83;21159;-75
2022/04/15 10:57:41;;;;;;;3.43;1.70;;;;;;;22.20;23.28;100504.58;1684160;83;21196;-75
2022/04/15 11:03:23;;;;;;;4.10;1.90;;;;;;;22.29;22.86;100498.48;1679138;83;21050;-75
2022/04/15 11:05:57;;;;;;;3.67;2.00;;;;;;;22.38;22.88;100482.07;1682578;83;21664;-77
2022/04/15 11:08:26;;;;;;;3.03;1.60;;;;;;;22.39;22.33;100478.20;1694612;83;21716;-74
2022/04/15 11:11:02;;;;;;;3.90;1.93;;;;;;;22.31;22.10;100487.25;1678605;83;21172;-75
2022/04/15 11:13:34;;;;;;;5.13;2.10;;;;;;;22.27;22.38;100490.42;1691911;83;21049;-73
2022/04/15 11:16:10;;;;;;;3.40;1.80;;;;;;;22.27;21.97;100483.05;1710184;83;21013;-76
2022/04/15 11:18:51;;;;;;;3.47;1.60;;;;;;;22.29;22.43;100478.65;1690798;83;21550;-75
2022/04/15 11:21:22;;;;;;;3.13;1.80;;;;;;;22.31;22.49;100473.11;1652289;86;21020;-76
2022/04/15 11:23:52;;;;;;;4.73;1.63;;;;;;;22.31;22.28;100480.45;1680154;85;21080;-75
2022/04/15 11:26:20;;;;;;;4.83;2.00;;;;;;;22.29;21.58;100480.80;1656676;84;21177;-74
2022/04/15 11:28:50;;;;;;;4.13;1.80;;;;;;;22.16;21.72;100469.09;1633511;84;21031;-75
2022/04/15 11:31:27;;;;;;;3.03;1.53;;;;;;;22.10;22.53;100462.25;1684837;83;21767;-74
2022/04/15 11:33:56;;;;;;;4.90;1.70;;;;;;;22.17;22.71;100457.64;1654115;84;21091;-74